createdAt,value
2019-06-07T00:02:51.566Z,47008.59
2019-06-07T00:07:47.493Z,47020.66
2019-06-07T00:12:43.411Z,47056.88
2019-06-07T00:17:39.335Z,47027.71
2019-06-07T00:22:35.244Z,47019.66
2019-06-07T00:27:31.166Z,47009.60
2019-06-07T00:32:27.110Z,47004.57
2019-06-07T00:37:25.304Z,47020.66
2019-06-07T00:42:23.737Z,46998.53
2019-06-07T00:47:23.029Z,47000.54
2019-06-07T00:53:07.641Z,46994.51
2019-06-07T00:57:16.669Z,46996.52
2019-06-07T01:02:14.605Z,46985.45
2019-06-07T01:07:10.213Z,46999.54
2019-06-07T01:12:06.131Z,47006.58
2019-06-07T01:17:27.979Z,47000.54
2019-06-07T01:22:16.440Z,46982.43
2019-06-07T01:27:13.224Z,46991.49
2019-06-07T01:32:09.148Z,47009.60
2019-06-07T01:37:05.064Z,46968.35
2019-06-07T01:42:01.031Z,46993.50
2019-06-07T01:46:56.950Z,46997.53
2019-06-07T01:51:53.830Z,46984.45
2019-06-07T01:56:49.757Z,46973.38
2019-06-07T02:01:45.674Z,47001.55
2019-06-07T02:06:41.695Z,46992.50
2019-06-07T02:11:37.657Z,46978.41
2019-06-07T02:16:33.571Z,46949.23
2019-06-07T02:21:33.442Z,46933.14
2019-06-07T02:26:30.790Z,46961.31
2019-06-07T02:31:27.796Z,46947.22
2019-06-07T02:36:28.842Z,46966.34
2019-06-07T02:41:25.774Z,46951.25
2019-06-07T02:46:30.438Z,46948.23
2019-06-07T02:51:23.687Z,46950.24
2019-06-07T02:56:46.439Z,46942.20
2019-06-07T03:01:17.597Z,46921.07
2019-06-07T03:06:14.111Z,46934.14
2019-06-07T03:11:11.217Z,46936.16
2019-06-07T03:16:09.254Z,46952.25
2019-06-07T03:21:07.568Z,46935.15
2019-06-07T03:26:03.834Z,46948.23
2019-06-07T03:31:02.594Z,46924.09
2019-06-07T03:35:57.701Z,46925.09
2019-06-07T03:40:53.676Z,46926.10
2019-06-07T03:45:49.596Z,46936.16
2019-06-07T03:50:45.572Z,46965.33
2019-06-07T03:55:41.613Z,46944.21
2019-06-07T04:00:42.715Z,46992.50
2019-06-07T04:05:40.250Z,46994.51
2019-06-07T04:10:53.417Z,46986.46
2019-06-07T04:15:33.825Z,46959.30
2019-06-07T04:20:32.527Z,46994.51
2019-06-07T04:25:29.061Z,46982.43
2019-06-07T04:30:43.711Z,47012.62
2019-06-07T04:35:42.917Z,47006.58
2019-06-07T04:40:42.545Z,47027.71
2019-06-07T04:45:45.769Z,47055.87
2019-06-07T04:50:40.439Z,47044.81
2019-06-07T04:55:36.616Z,47062.92
2019-06-07T05:00:49.827Z,47078.01
2019-06-07T05:05:34.460Z,47066.94
2019-06-07T05:10:35.702Z,47127.31
2019-06-07T05:15:29.580Z,47150.45
2019-06-07T05:20:25.517Z,47145.42
2019-06-07T05:25:21.472Z,47221.88
2019-06-07T05:35:30.699Z,47263.13
2019-06-07T05:40:33.021Z,47312.43
2019-06-07T05:45:38.142Z,47342.61
2019-06-07T05:50:43.964Z,47406.00
2019-06-07T05:55:30.787Z,47391.91
2019-06-07T06:00:26.798Z,47377.83
2019-06-07T06:05:33.205Z,47453.29
2019-06-07T06:10:20.535Z,47521.71
2019-06-07T06:15:16.748Z,47514.67
2019-06-07T06:20:13.983Z,47543.85
2019-06-07T06:25:31.760Z,47563.97
2019-06-07T06:30:09.766Z,47541.84
2019-06-07T06:35:06.591Z,47530.77
2019-06-07T06:40:04.506Z,47574.03
2019-06-07T06:45:00.424Z,47594.16
2019-06-07T06:49:56.345Z,47588.12
2019-06-07T06:55:00.071Z,47622.33
2019-06-07T06:59:52.542Z,47636.42
2019-06-07T07:04:48.762Z,47620.32
2019-06-07T07:09:51.086Z,47662.58
2019-06-07T07:14:47.038Z,47720.94
2019-06-07T07:19:46.569Z,47673.65
2019-06-07T07:24:40.263Z,47728.99
2019-06-07T07:29:36.175Z,47798.42
2019-06-07T07:34:36.647Z,47659.56
2019-06-07T07:39:30.585Z,47679.68
2019-06-07T07:44:26.572Z,47663.59
2019-06-07T07:49:22.488Z,47710.88
2019-06-07T07:54:18.404Z,47801.44
2019-06-07T07:59:14.326Z,47727.98
2019-06-07T08:04:10.245Z,47823.57
2019-06-07T08:09:09.482Z,47901.06
2019-06-07T08:14:05.383Z,47733.02
2019-06-07T08:19:04.193Z,47728.99
2019-06-07T08:24:03.575Z,47786.34
2019-06-07T08:28:59.746Z,47762.20
2019-06-07T08:33:57.037Z,47736.04
2019-06-07T08:39:07.307Z,47784.33
2019-06-07T08:44:00.724Z,47867.85
2019-06-07T08:49:01.410Z,47876.91
2019-06-07T08:54:20.578Z,47833.64
2019-06-07T08:58:54.981Z,47803.45
2019-06-07T09:03:49.743Z,47944.33
2019-06-07T09:08:51.934Z,47953.39
2019-06-07T09:13:49.444Z,47955.40
2019-06-07T09:18:45.618Z,47979.55
2019-06-07T09:23:41.737Z,47998.67
2019-06-07T09:28:37.672Z,47999.68
2019-06-07T09:33:33.570Z,48054.02
2019-06-07T09:38:29.766Z,48082.19
2019-06-07T09:49:09.225Z,48090.24
2019-06-07T09:53:23.315Z,48084.21
2019-06-07T10:03:22.105Z,48127.48
2019-06-07T10:09:15.082Z,48238.18
2019-06-07T10:13:12.809Z,48131.50
2019-06-07T10:18:09.274Z,48205.97
2019-06-07T10:23:05.786Z,48199.93
2019-06-07T10:28:01.922Z,48189.87
2019-06-07T10:32:57.805Z,48129.49
2019-06-07T10:37:53.755Z,48352.90
2019-06-07T10:42:49.741Z,48191.88
2019-06-07T10:47:45.728Z,48237.17
2019-06-07T10:52:41.772Z,48104.33
2019-06-07T10:57:37.693Z,48167.73
2019-06-07T11:02:33.636Z,48226.10
2019-06-07T11:07:29.535Z,48235.16
2019-06-07T11:12:25.451Z,48226.10
2019-06-07T11:17:21.496Z,48240.19
2019-06-07T11:22:18.586Z,48354.91
2019-06-07T11:27:16.353Z,48287.49
2019-06-07T11:32:12.629Z,48287.49
2019-06-07T11:37:09.469Z,48290.51
2019-06-07T11:42:07.782Z,48355.92
2019-06-07T11:47:04.017Z,48294.53
2019-06-07T11:51:59.959Z,48319.69
2019-06-07T11:56:55.886Z,48455.55
2019-06-07T12:01:51.805Z,48376.05
2019-06-07T12:06:47.823Z,48447.50
2019-06-07T12:11:43.859Z,48433.41
2019-06-07T12:16:40.832Z,48465.62
2019-06-07T12:21:36.755Z,48463.61
2019-06-07T12:26:34.250Z,48507.89
2019-06-07T12:31:30.275Z,48511.92
2019-06-07T12:36:26.205Z,48611.55
2019-06-07T12:41:22.433Z,48718.24
2019-06-07T12:46:23.101Z,48572.30
2019-06-07T12:51:17.217Z,48745.41
2019-06-07T12:56:13.549Z,48727.30
2019-06-07T13:01:09.561Z,48705.16
2019-06-07T13:06:05.481Z,48750.45
2019-06-07T13:11:15.694Z,48707.17
2019-06-07T13:15:59.232Z,48832.98
2019-06-07T13:20:55.734Z,48847.07
2019-06-07T13:25:51.778Z,48834.99
2019-06-07T13:30:47.692Z,48782.66
2019-06-07T13:35:43.817Z,48733.34
2019-06-07T13:40:39.812Z,48672.95
2019-06-07T13:45:35.737Z,48762.52
2019-06-07T13:50:31.697Z,48923.57
2019-06-07T13:55:28.023Z,48826.94
2019-06-07T14:00:24.877Z,48699.12
2019-06-07T14:05:21.050Z,48739.37
2019-06-07T14:10:17.096Z,48833.99
2019-06-07T14:15:13.117Z,48869.21
2019-06-07T14:20:10.700Z,48928.60
2019-06-07T14:25:07.874Z,48912.50
2019-06-07T14:30:06.207Z,49085.63
2019-06-07T14:35:03.895Z,49041.34
2019-06-07T14:39:59.930Z,48929.61
2019-06-07T14:44:55.856Z,48981.95
2019-06-07T14:49:51.782Z,48974.90
2019-06-07T14:54:47.711Z,48934.64
2019-06-07T14:59:43.632Z,48962.82
2019-06-07T15:04:41.898Z,48915.52
2019-06-07T15:09:39.378Z,48884.31
2019-06-07T15:14:37.521Z,48880.29
2019-06-07T15:19:36.408Z,48994.03
2019-06-07T15:24:38.932Z,48915.52
2019-06-07T15:29:36.307Z,49054.42
2019-06-07T15:34:34.326Z,48950.75
2019-06-07T15:39:32.555Z,48986.98
2019-06-07T15:44:29.375Z,48984.97
2019-06-07T15:49:26.447Z,48832.98
2019-06-07T15:54:23.149Z,48813.86
2019-06-07T15:59:19.178Z,48766.55
2019-06-07T16:04:15.203Z,48648.79
2019-06-07T16:09:12.017Z,48669.93
2019-06-07T16:14:08.013Z,48694.09
2019-06-07T16:19:06.512Z,48803.79
2019-06-07T16:24:02.762Z,48749.44
2019-06-07T16:28:58.657Z,48576.33
2019-06-07T16:33:54.580Z,48492.79
2019-06-07T16:38:51.210Z,48460.59
2019-06-07T16:43:47.171Z,48411.27
2019-06-07T16:48:44.942Z,48340.83
2019-06-07T16:53:42.353Z,48596.46
2019-06-07T16:58:38.476Z,49042.34
2019-06-07T17:03:34.404Z,49540.62
2019-06-07T17:08:30.327Z,49570.82
2019-06-07T17:13:33.428Z,49507.40
2019-06-07T17:18:24.069Z,49560.76
2019-06-07T17:23:19.993Z,49351.37
2019-06-07T17:28:16.043Z,48856.13
2019-06-07T17:33:12.040Z,48495.81
2019-06-07T17:38:07.970Z,48410.27
2019-06-07T17:43:03.891Z,48286.48
2019-06-07T17:47:59.813Z,48278.43
2019-06-07T17:53:02.833Z,48289.50
2019-06-07T17:57:58.911Z,48308.62
2019-06-07T18:02:54.832Z,48238.18
2019-06-07T18:07:51.854Z,48268.37
2019-06-07T18:12:48.151Z,48190.88
2019-06-07T18:17:44.539Z,48089.24
2019-06-07T18:22:41.193Z,47980.55
2019-06-07T18:27:37.123Z,47436.19
2019-06-07T18:32:33.048Z,47363.74
2019-06-07T18:37:29.002Z,47330.54
2019-06-07T18:42:24.933Z,47370.79
2019-06-07T18:47:20.854Z,47370.79
2019-06-07T18:52:18.719Z,47403.99
2019-06-07T18:57:15.439Z,47367.77
2019-06-07T19:02:11.577Z,47411.03
2019-06-07T19:07:11.235Z,47320.48
2019-06-07T19:12:07.989Z,47297.34
2019-06-07T19:17:04.925Z,47292.31
2019-06-07T19:22:02.929Z,47278.22
2019-06-07T19:27:03.606Z,47274.20
2019-06-07T19:32:01.655Z,47268.16
2019-06-07T19:37:02.009Z,47249.05
2019-06-07T19:42:02.515Z,47173.59
2019-06-07T19:47:00.493Z,47239.99
2019-06-07T19:51:59.119Z,47272.18
2019-06-07T19:56:55.739Z,47253.07
2019-06-07T20:01:53.601Z,47242.00
2019-06-07T20:06:50.532Z,47242.00
2019-06-07T20:11:46.563Z,47256.09
2019-06-07T20:16:42.489Z,47244.02
2019-06-07T20:21:38.415Z,47248.04
2019-06-07T20:26:34.438Z,47261.12
2019-06-07T20:31:31.145Z,47268.16
2019-06-07T20:36:27.078Z,47258.10
2019-06-07T20:41:23.000Z,47215.84
2019-06-07T20:46:18.950Z,47231.94
2019-06-07T20:51:15.017Z,47205.78
2019-06-07T20:56:10.978Z,47229.93
2019-06-07T21:01:07.023Z,47208.80
2019-06-07T21:06:05.451Z,47239.99
2019-06-07T21:11:01.620Z,47221.88
2019-06-07T21:15:57.843Z,47209.81
2019-06-07T21:20:53.927Z,47192.70
2019-06-07T21:25:50.107Z,47194.71
2019-06-07T21:30:46.221Z,47224.90
2019-06-07T21:35:42.243Z,47187.67
2019-06-07T21:40:38.170Z,47195.72
2019-06-07T21:45:34.131Z,47212.82
2019-06-07T21:50:30.260Z,47179.63
2019-06-07T21:55:26.206Z,47211.82
2019-06-07T22:00:42.930Z,47185.66
2019-06-07T22:05:38.848Z,47187.67
2019-06-07T22:10:34.801Z,47182.64
2019-06-07T22:15:35.385Z,47175.60
2019-06-07T22:20:28.669Z,47173.59
2019-06-07T22:25:24.756Z,47133.34
2019-06-07T22:30:20.832Z,47127.31
2019-06-07T22:35:16.766Z,47147.43
2019-06-07T22:40:12.964Z,47156.48
2019-06-07T22:45:10.858Z,47165.54
2019-06-07T22:50:08.753Z,47131.33
2019-06-07T22:55:07.707Z,47141.39
2019-06-07T23:00:10.431Z,47160.51
2019-06-07T23:05:04.848Z,47177.61
2019-06-07T23:10:01.584Z,47153.46
2019-06-07T23:14:57.529Z,47161.52
2019-06-07T23:19:53.458Z,47150.45
2019-06-07T23:24:49.389Z,47197.73
2019-06-07T23:29:45.311Z,47179.63
2019-06-07T23:34:41.234Z,47163.53
2019-06-07T23:39:37.663Z,47177.61
2019-06-07T23:44:34.099Z,47186.67
2019-06-07T23:49:30.120Z,47182.64
2019-06-07T23:54:26.051Z,47148.43
2019-06-07T23:59:22.390Z,47167.55
